Time;durP1;ratioP1;P1;durP2;ratioP2;P2;SDS_P1;SDS_P2;PMS_P1;PMS_P2;Temp;Humidity;BMP_temperature;BMP_pressure;BME280_temperature;BME280_humidity;BME280_pressure;Samples;Min_cycle;Max_cycle;Signal;HPM_P1;HPM_P2
2021/05/29 00:02:21;;;;;;;5.57;2.83;;;;;;;;;;5026027;28;38415;-76
2021/05/29 00:04:48;;;;;;;4.53;2.78;;;;;;;;;;5059611;28;39448;-76
2021/05/29 00:07:14;;;;;;;5.22;2.67;;;;;;;;;;5058903;28;37634;-76
2021/05/29 00:09:41;;;;;;;3.95;2.88;;;;;;;;;;5065349;27;39824;-76
2021/05/29 00:12:09;;;;;;;3.10;2.47;;;;;;;;;;5046882;27;38796;-77
2021/05/29 00:14:37;;;;;;;4.70;2.70;;;;;;;;;;5077622;27;39272;-76
2021/05/29 00:17:04;;;;;;;3.13;2.83;;;;;;;;;;5032700;28;36561;-77
2021/05/29 00:19:30;;;;;;;7.07;2.78;;;;;;;;;;5045663;28;39236;-77
2021/05/29 00:21:57;;;;;;;3.40;2.80;;;;;;;;;;5079652;27;39223;-76
2021/05/29 00:24:23;;;;;;;3.25;2.95;;;;;;;;;;5078012;28;38727;-75
2021/05/29 00:26:50;;;;;;;4.55;2.67;;;;;;;;;;5045891;28;37728;-78
2021/05/29 00:29:16;;;;;;;4.47;2.83;;;;;;;;;;5044813;28;39715;-79
2021/05/29 00:31:43;;;;;;;4.32;3.10;;;;;;;;;;5042126;28;39759;-78
2021/05/29 00:34:09;;;;;;;6.20;3.72;;;;;;;;;;5025789;28;37953;-76
2021/05/29 00:36:36;;;;;;;4.22;2.60;;;;;;;;;;5058635;28;37074;-77
2021/05/29 00:39:03;;;;;;;4.63;2.95;;;;;;;;;;5027185;28;39686;-77
2021/05/29 00:41:29;;;;;;;6.60;3.50;;;;;;;;;;5045225;28;37457;-76
2021/05/29 00:43:56;;;;;;;4.50;3.55;;;;;;;;;;5048040;28;38268;-76
2021/05/29 00:46:22;;;;;;;6.22;4.00;;;;;;;;;;5042755;28;37043;-77
2021/05/29 00:48:49;;;;;;;4.45;3.53;;;;;;;;;;5041637;28;39851;-77
2021/05/29 00:51:15;;;;;;;5.35;3.60;;;;;;;;;;5062161;28;39299;-77
2021/05/29 00:53:42;;;;;;;5.90;3.72;;;;;;;;;;5080341;28;38889;-77
2021/05/29 00:56:08;;;;;;;5.63;3.70;;;;;;;;;;5043479;27;37641;-77
2021/05/29 00:58:34;;;;;;;3.92;3.53;;;;;;;;;;5046164;28;38972;-77
2021/05/29 01:01:01;;;;;;;5.38;3.75;;;;;;;;;;5077984;28;38960;-78
2021/05/29 01:03:29;;;;;;;6.18;3.58;;;;;;;;;;5042667;28;47534;-78
2021/05/29 01:05:55;;;;;;;5.18;4.38;;;;;;;;;;5071736;28;37661;-77
2021/05/29 01:08:25;;;;;;;6.57;4.10;;;;;;;;;;5036654;28;38528;-76
2021/05/29 01:10:51;;;;;;;5.43;4.55;;;;;;;;;;5045294;28;40000;-78
2021/05/29 01:13:22;;;;;;;6.55;4.38;;;;;;;;;;5042213;28;39168;-76
2021/05/29 01:15:49;;;;;;;6.55;4.50;;;;;;;;;;5040936;28;37257;-76
2021/05/29 01:18:16;;;;;;;8.65;4.78;;;;;;;;;;5029068;28;38407;-76
2021/05/29 01:20:44;;;;;;;5.43;4.43;;;;;;;;;;5043264;28;38527;-76
2021/05/29 01:23:12;;;;;;;5.30;4.10;;;;;;;;;;5040290;28;39266;-77
2021/05/29 01:25:40;;;;;;;6.68;4.78;;;;;;;;;;5040324;28;36814;-76
2021/05/29 01:28:06;;;;;;;7.47;5.47;;;;;;;;;;5035749;28;39410;-76
2021/05/29 01:30:35;;;;;;;7.75;5.13;;;;;;;;;;5042184;28;39361;-78
2021/05/29 01:33:01;;;;;;;8.68;4.78;;;;;;;;;;5045816;28;39727;-80
2021/05/29 01:35:28;;;;;;;5.93;5.32;;;;;;;;;;5063157;28;49081;-76
2021/05/29 01:37:55;;;;;;;7.93;5.53;;;;;;;;;;5064997;28;39153;-78
2021/05/29 01:40:21;;;;;;;7.18;5.45;;;;;;;;;;5055109;28;39769;-77
2021/05/29 01:42:48;;;;;;;8.77;5.45;;;;;;;;;;5057266;28;38108;-78
2021/05/29 01:45:14;;;;;;;6.53;5.53;;;;;;;;;;5064136;28;37317;-79
2021/05/29 01:47:42;;;;;;;6.22;5.38;;;;;;;;;;5068043;28;39663;-76
2021/05/29 01:50:10;;;;;;;7.70;6.18;;;;;;;;;;5069462;27;38403;-77
2021/05/29 01:52:46;;;;;;;7.47;6.05;;;;;;;;;;5065282;28;39582;-78
2021/05/29 01:55:13;;;;;;;8.65;6.55;;;;;;;;;;5066512;28;38006;-76
2021/05/29 01:57:39;;;;;;;10.85;6.72;;;;;;;;;;5058902;28;40557;-76
2021/05/29 02:00:07;;;;;;;10.90;6.70;;;;;;;;;;5049061;28;39714;-77
2021/05/29 02:02:33;;;;;;;11.52;6.57;;;;;;;;;;5055963;28;48021;-79
2021/05/29 02:05:08;;;;;;;7.78;6.10;;;;;;;;;;5069338;28;37367;-77
2021/05/29 02:07:34;;;;;;;7.30;5.82;;;;;;;;;;5062654;28;46989;-79
2021/05/29 02:10:00;;;;;;;8.88;6.75;;;;;;;;;;5066341;28;39126;-76
2021/05/29 02:12:27;;;;;;;9.75;7.07;;;;;;;;;;5067474;28;38278;-77
2021/05/29 02:14:53;;;;;;;10.32;6.93;;;;;;;;;;5058284;28;36406;-78
2021/05/29 02:17:20;;;;;;;9.25;6.75;;;;;;;;;;5047636;28;39530;-80
2021/05/29 02:19:46;;;;;;;10.95;6.95;;;;;;;;;;5064009;27;38933;-78
2021/05/29 02:22:12;;;;;;;9.13;7.72;;;;;;;;;;5066124;28;39520;-77
2021/05/29 02:24:39;;;;;;;10.35;7.53;;;;;;;;;;5067625;28;37323;-77
2021/05/29 02:27:05;;;;;;;9.98;6.95;;;;;;;;;;5067651;28;40142;-76
2021/05/29 02:29:31;;;;;;;10.73;7.53;;;;;;;;;;5067229;28;39215;-76
2021/05/29 02:31:58;;;;;;;11.82;7.93;;;;;;;;;;5054165;28;38543;-77
2021/05/29 02:34:24;;;;;;;9.25;7.03;;;;;;;;;;5049017;28;36877;-77
2021/05/29 02:36:51;;;;;;;9.95;7.68;;;;;;;;;;5046464;28;39685;-75
2021/05/29 02:39:17;;;;;;;9.23;7.05;;;;;;;;;;5063901;27;40057;-77
2021/05/29 02:41:43;;;;;;;13.60;7.88;;;;;;;;;;5066895;28;39946;-79
2021/05/29 02:44:10;;;;;;;9.55;7.55;;;;;;;;;;5068354;27;36706;-77
2021/05/29 02:46:36;;;;;;;10.20;8.60;;;;;;;;;;5066841;28;39299;-77
2021/05/29 02:49:02;;;;;;;12.88;8.70;;;;;;;;;;5066965;27;38492;-76
2021/05/29 02:51:29;;;;;;;13.27;7.78;;;;;;;;;;5064185;28;38469;-77
2021/05/29 02:53:55;;;;;;;8.85;7.43;;;;;;;;;;5068306;28;37461;-77
2021/05/29 02:56:22;;;;;;;11.38;7.88;;;;;;;;;;5064768;28;40759;-79
2021/05/29 02:58:48;;;;;;;9.88;7.35;;;;;;;;;;5064816;28;38649;-80
2021/05/29 03:01:14;;;;;;;10.15;7.57;;;;;;;;;;5065645;28;38758;-78
2021/05/29 03:03:41;;;;;;;9.57;7.88;;;;;;;;;;5069157;28;37963;-79
2021/05/29 03:06:07;;;;;;;13.35;9.05;;;;;;;;;;5051440;28;38865;-77
2021/05/29 03:08:34;;;;;;;12.02;8.90;;;;;;;;;;5068030;28;38874;-77
2021/05/29 03:11:00;;;;;;;14.10;7.47;;;;;;;;;;5079259;27;38504;-80
2021/05/29 03:13:27;;;;;;;11.48;8.27;;;;;;;;;;5056906;28;37237;-78
2021/05/29 03:15:53;;;;;;;14.07;8.80;;;;;;;;;;5026508;28;39594;-77
2021/05/29 03:18:20;;;;;;;12.98;9.98;;;;;;;;;;5030275;28;39166;-77
2021/05/29 03:20:46;;;;;;;14.32;9.02;;;;;;;;;;5051701;28;38734;-76
2021/05/29 03:23:12;;;;;;;10.57;8.68;;;;;;;;;;5054766;28;37394;-76
2021/05/29 03:25:39;;;;;;;15.07;9.90;;;;;;;;;;5064384;28;39586;-77
2021/05/29 03:28:05;;;;;;;11.02;8.52;;;;;;;;;;5066195;28;37421;-78
2021/05/29 03:30:32;;;;;;;12.60;9.13;;;;;;;;;;5062592;27;48226;-78
2021/05/29 03:32:58;;;;;;;10.73;8.82;;;;;;;;;;5066806;28;35745;-79
2021/05/29 03:35:25;;;;;;;11.05;8.85;;;;;;;;;;5064358;28;41562;-79
2021/05/29 03:37:52;;;;;;;15.35;9.88;;;;;;;;;;5067102;28;38684;-79
2021/05/29 03:40:18;;;;;;;12.77;9.68;;;;;;;;;;5055499;28;38881;-80
2021/05/29 03:42:45;;;;;;;16.10;10.85;;;;;;;;;;5066911;28;38052;-79
2021/05/29 03:45:14;;;;;;;14.10;9.87;;;;;;;;;;5063768;28;40586;-78
2021/05/29 03:47:43;;;;;;;16.07;10.47;;;;;;;;;;5066724;28;38219;-76
2021/05/29 03:50:11;;;;;;;15.50;9.60;;;;;;;;;;5065315;28;38841;-77
2021/05/29 03:52:41;;;;;;;14.15;11.07;;;;;;;;;;5068842;28;36786;-78
2021/05/29 03:55:08;;;;;;;15.97;10.73;;;;;;;;;;5066656;28;39078;-77
2021/05/29 03:57:34;;;;;;;16.10;10.23;;;;;;;;;;5055318;28;38764;-80
2021/05/29 04:00:01;;;;;;;18.23;11.10;;;;;;;;;;5065115;28;40103;-79
2021/05/29 04:02:27;;;;;;;13.52;11.27;;;;;;;;;;5063835;28;37157;-77
2021/05/29 04:04:53;;;;;;;16.57;10.00;;;;;;;;;;5067979;28;38853;-77
2021/05/29 04:07:21;;;;;;;15.18;11.02;;;;;;;;;;5065524;28;38054;-80
2021/05/29 04:09:47;;;;;;;15.82;10.45;;;;;;;;;;5081285;27;38446;-77
2021/05/29 04:12:14;;;;;;;17.53;11.67;;;;;;;;;;5087391;27;38172;-79
2021/05/29 04:14:40;;;;;;;14.67;11.07;;;;;;;;;;5047698;28;39631;-77
2021/05/29 04:17:09;;;;;;;16.40;10.57;;;;;;;;;;5045919;28;39564;-76
2021/05/29 04:19:35;;;;;;;15.00;9.90;;;;;;;;;;5054778;28;37215;-77
2021/05/29 04:22:01;;;;;;;16.00;11.03;;;;;;;;;;5066792;28;37088;-79
2021/05/29 04:24:28;;;;;;;16.20;11.27;;;;;;;;;;5064806;28;47208;-75
2021/05/29 04:26:54;;;;;;;12.38;10.13;;;;;;;;;;5067170;28;39631;-75
2021/05/29 04:29:20;;;;;;;14.13;10.98;;;;;;;;;;5062951;28;38242;-76
2021/05/29 04:31:47;;;;;;;14.48;10.05;;;;;;;;;;5063012;28;38812;-76
2021/05/29 04:34:13;;;;;;;16.25;9.68;;;;;;;;;;5066118;28;39353;-75
2021/05/29 04:36:39;;;;;;;12.30;9.63;;;;;;;;;;5064764;28;38325;-76
2021/05/29 04:39:06;;;;;;;12.77;9.07;;;;;;;;;;5066104;28;39314;-77
2021/05/29 04:41:32;;;;;;;13.25;7.90;;;;;;;;;;5046992;28;36374;-78
2021/05/29 04:43:59;;;;;;;12.32;9.00;;;;;;;;;;5046874;28;40329;-78
2021/05/29 04:46:26;;;;;;;13.00;8.30;;;;;;;;;;5052995;28;37652;-79
2021/05/29 04:48:52;;;;;;;13.02;7.55;;;;;;;;;;5058765;28;38419;-77
2021/05/29 04:51:19;;;;;;;9.95;6.68;;;;;;;;;;5063777;28;37349;-77
2021/05/29 04:53:46;;;;;;;8.60;6.50;;;;;;;;;;5065749;28;39574;-76
2021/05/29 04:56:13;;;;;;;7.95;5.93;;;;;;;;;;5063292;28;39037;-78
2021/05/29 04:58:40;;;;;;;8.60;5.95;;;;;;;;;;5065467;28;39055;-77
2021/05/29 05:01:07;;;;;;;7.22;5.82;;;;;;;;;;5061362;27;38889;-77
2021/05/29 05:03:34;;;;;;;7.65;5.70;;;;;;;;;;5060562;28;39751;-77
2021/05/29 05:06:01;;;;;;;6.72;5.47;;;;;;;;;;5052874;28;38097;-76
2021/05/29 05:08:27;;;;;;;7.00;4.80;;;;;;;;;;5070088;27;47605;-79
2021/05/29 05:10:55;;;;;;;6.55;4.90;;;;;;;;;;5072611;27;37278;-76
2021/05/29 05:13:23;;;;;;;9.25;5.57;;;;;;;;;;5063719;28;39955;-76
2021/05/29 05:15:50;;;;;;;5.13;4.20;;;;;;;;;;5059872;28;39396;-79
2021/05/29 05:18:16;;;;;;;7.38;4.20;;;;;;;;;;5049401;27;38272;-77
2021/05/29 05:20:42;;;;;;;5.68;3.97;;;;;;;;;;5061459;27;38008;-77
2021/05/29 05:23:09;;;;;;;6.05;4.38;;;;;;;;;;5053782;28;39173;-77
2021/05/29 05:25:35;;;;;;;4.57;3.40;;;;;;;;;;5062091;28;38747;-77
2021/05/29 05:28:02;;;;;;;5.70;3.75;;;;;;;;;;5065398;28;38492;-77
2021/05/29 05:30:28;;;;;;;4.63;3.00;;;;;;;;;;5061853;28;35714;-79
2021/05/29 05:32:55;;;;;;;5.82;3.30;;;;;;;;;;5066686;28;39007;-77
2021/05/29 05:35:24;;;;;;;5.70;3.50;;;;;;;;;;5062342;28;38654;-77
2021/05/29 05:37:50;;;;;;;4.82;3.38;;;;;;;;;;5061243;28;39590;-76
2021/05/29 05:40:17;;;;;;;3.53;3.22;;;;;;;;;;5042991;28;37468;-76
2021/05/29 05:42:44;;;;;;;6.43;3.40;;;;;;;;;;5058058;28;38475;-77
2021/05/29 05:45:11;;;;;;;4.45;3.13;;;;;;;;;;5062657;28;38280;-76
2021/05/29 05:47:37;;;;;;;4.80;3.70;;;;;;;;;;5063860;28;38392;-78
2021/05/29 05:50:04;;;;;;;3.95;2.92;;;;;;;;;;5065120;28;37031;-76
2021/05/29 05:52:31;;;;;;;4.00;3.08;;;;;;;;;;5061447;28;47040;-77
2021/05/29 05:54:57;;;;;;;5.35;3.38;;;;;;;;;;5058461;28;38659;-77
2021/05/29 05:57:24;;;;;;;4.03;3.63;;;;;;;;;;5052228;28;37892;-77
2021/05/29 05:59:50;;;;;;;4.75;3.25;;;;;;;;;;5064546;28;38378;-77
2021/05/29 06:02:16;;;;;;;3.45;2.97;;;;;;;;;;5064650;27;39771;-77
2021/05/29 06:04:43;;;;;;;3.60;2.90;;;;;;;;;;5065052;27;38590;-77
2021/05/29 06:07:09;;;;;;;4.32;2.88;;;;;;;;;;5063509;28;37370;-77
2021/05/29 06:09:36;;;;;;;4.68;2.75;;;;;;;;;;5068492;28;36991;-77
2021/05/29 06:12:02;;;;;;;4.57;2.83;;;;;;;;;;5059064;28;37970;-76
2021/05/29 06:20:00;;;;;;;6.25;2.97;;;;;;;;;;5064382;27;37843;-76
2021/05/29 06:22:26;;;;;;;3.67;2.83;;;;;;;;;;5060337;28;40523;-76
2021/05/29 06:24:53;;;;;;;3.88;2.88;;;;;;;;;;5064447;28;38589;-76
2021/05/29 06:27:19;;;;;;;6.05;2.78;;;;;;;;;;5063134;28;38358;-77
2021/05/29 06:29:45;;;;;;;5.63;2.80;;;;;;;;;;5055633;28;37651;-76
2021/05/29 06:32:13;;;;;;;3.42;2.65;;;;;;;;;;5067955;28;38439;-76
2021/05/29 06:34:40;;;;;;;6.00;2.75;;;;;;;;;;5067065;28;38960;-77
2021/05/29 06:37:07;;;;;;;4.15;2.90;;;;;;;;;;5065170;28;39010;-77
2021/05/29 06:39:33;;;;;;;3.83;2.60;;;;;;;;;;5065911;28;36852;-77
2021/05/29 06:42:00;;;;;;;4.03;2.75;;;;;;;;;;5068850;28;38735;-76
2021/05/29 06:44:26;;;;;;;3.17;2.70;;;;;;;;;;5064808;28;40472;-76
2021/05/29 06:46:53;;;;;;;5.72;3.28;;;;;;;;;;5057165;28;37708;-77
2021/05/29 06:49:21;;;;;;;4.03;2.78;;;;;;;;;;5066017;28;37388;-76
2021/05/29 06:52:01;;;;;;;3.75;2.70;;;;;;;;;;5066491;28;39607;-78
2021/05/29 06:54:47;;;;;;;2.67;2.30;;;;;;;;;;5067124;28;49100;-77
2021/05/29 06:59:58;;;;;;;4.10;2.90;;;;;;;;;;5048789;28;37770;-77
2021/05/29 07:02:25;;;;;;;4.85;2.72;;;;;;;;;;5047244;28;38066;-76
2021/05/29 07:04:51;;;;;;;7.18;2.85;;;;;;;;;;5064254;27;38459;-75
2021/05/29 07:07:18;;;;;;;4.10;2.80;;;;;;;;;;5066723;27;37113;-77
2021/05/29 07:09:44;;;;;;;4.10;2.83;;;;;;;;;;5068773;27;36866;-78
2021/05/29 07:12:11;;;;;;;5.35;2.97;;;;;;;;;;5061616;28;37721;-77
2021/05/29 07:14:37;;;;;;;5.47;2.50;;;;;;;;;;5065084;28;38579;-76
2021/05/29 07:17:06;;;;;;;5.13;2.83;;;;;;;;;;5052376;28;37028;-76
2021/05/29 07:19:33;;;;;;;3.70;2.90;;;;;;;;;;5060962;28;36954;-77
2021/05/29 07:21:59;;;;;;;7.40;3.20;;;;;;;;;;5045879;28;40973;-75
2021/05/29 07:24:26;;;;;;;4.82;3.00;;;;;;;;;;5063308;27;38454;-77
2021/05/29 07:26:53;;;;;;;5.15;3.00;;;;;;;;;;5065817;28;38416;-77
2021/05/29 07:29:20;;;;;;;5.47;3.17;;;;;;;;;;5064399;28;35768;-78
2021/05/29 07:31:46;;;;;;;4.57;3.00;;;;;;;;;;5063661;28;37877;-80
2021/05/29 07:34:13;;;;;;;7.05;3.55;;;;;;;;;;5060923;28;37921;-77
2021/05/29 07:36:40;;;;;;;4.55;2.67;;;;;;;;;;5065087;28;38101;-77
2021/05/29 07:39:07;;;;;;;5.60;3.28;;;;;;;;;;5062995;28;36707;-77
2021/05/29 07:41:35;;;;;;;7.10;3.20;;;;;;;;;;5061804;28;38149;-76
2021/05/29 07:44:01;;;;;;;6.45;3.65;;;;;;;;;;5064519;28;38994;-77
2021/05/29 07:46:29;;;;;;;3.70;2.88;;;;;;;;;;5058872;28;47051;-77
2021/05/29 07:48:56;;;;;;;5.18;3.60;;;;;;;;;;5061680;28;39102;-77
2021/05/29 07:51:22;;;;;;;7.07;3.10;;;;;;;;;;5065091;28;40425;-77
2021/05/29 07:53:49;;;;;;;6.28;3.30;;;;;;;;;;5064253;28;38098;-76
2021/05/29 07:56:16;;;;;;;4.10;3.15;;;;;;;;;;5045014;28;36814;-77
2021/05/29 07:58:43;;;;;;;4.70;3.72;;;;;;;;;;5065307;28;37151;-78
2021/05/29 08:01:10;;;;;;;4.82;3.40;;;;;;;;;;5065215;28;40315;-78
2021/05/29 08:03:37;;;;;;;5.47;3.58;;;;;;;;;;5068938;28;39958;-77
2021/05/29 08:06:08;;;;;;;4.57;3.72;;;;;;;;;;5065201;28;37421;-77
2021/05/29 08:08:34;;;;;;;6.50;3.63;;;;;;;;;;5060210;28;37928;-76
2021/05/29 08:11:03;;;;;;;4.30;3.25;;;;;;;;;;5059868;28;39991;-78
2021/05/29 08:13:30;;;;;;;4.15;3.00;;;;;;;;;;5053097;27;49669;-77
2021/05/29 08:15:56;;;;;;;5.28;3.28;;;;;;;;;;5058526;28;38080;-77
2021/05/29 08:18:23;;;;;;;5.57;3.40;;;;;;;;;;5083272;27;37317;-76
2021/05/29 08:20:50;;;;;;;5.57;3.60;;;;;;;;;;5065115;28;37873;-76
2021/05/29 08:23:17;;;;;;;3.13;2.83;;;;;;;;;;5063850;27;39828;-77
2021/05/29 08:25:45;;;;;;;4.63;2.75;;;;;;;;;;5063144;27;37670;-78
2021/05/29 08:28:12;;;;;;;4.47;2.88;;;;;;;;;;5065870;27;37677;-77
2021/05/29 08:30:38;;;;;;;4.15;2.53;;;;;;;;;;5060923;28;40473;-76
2021/05/29 08:33:06;;;;;;;4.13;2.63;;;;;;;;;;5063437;28;39673;-77
2021/05/29 08:35:33;;;;;;;5.45;2.65;;;;;;;;;;5062436;28;38830;-77
2021/05/29 08:37:59;;;;;;;3.45;2.05;;;;;;;;;;5061084;28;36450;-75
2021/05/29 08:40:26;;;;;;;2.90;2.25;;;;;;;;;;5060189;28;40965;-77
2021/05/29 08:42:52;;;;;;;3.08;2.20;;;;;;;;;;5062872;28;38702;-76
2021/05/29 08:45:20;;;;;;;2.75;2.20;;;;;;;;;;5056173;28;37323;-78
2021/05/29 08:47:47;;;;;;;2.85;1.98;;;;;;;;;;5051308;28;36773;-77
2021/05/29 08:50:14;;;;;;;3.30;2.35;;;;;;;;;;5065087;28;38697;-76
2021/05/29 08:52:41;;;;;;;4.20;2.28;;;;;;;;;;5064520;28;37543;-78
2021/05/29 08:55:09;;;;;;;3.33;2.42;;;;;;;;;;5063551;28;38445;-78
2021/05/29 08:57:36;;;;;;;4.00;2.33;;;;;;;;;;5064653;28;36271;-77
2021/05/29 09:00:04;;;;;;;5.28;2.72;;;;;;;;;;5063406;28;39227;-76
2021/05/29 09:02:31;;;;;;;4.80;2.60;;;;;;;;;;5054460;28;38991;-77
2021/05/29 09:05:03;;;;;;;4.65;2.38;;;;;;;;;;5044469;28;38562;-78
2021/05/29 09:07:30;;;;;;;3.92;2.22;;;;;;;;;;5054657;28;47598;-78
2021/05/29 09:10:15;;;;;;;2.22;1.80;;;;;;;;;;5062604;28;37622;-77
2021/05/29 09:13:00;;;;;;;2.60;2.25;;;;;;;;;;5064670;28;48836;-77
2021/05/29 09:15:46;;;;;;;4.68;2.30;;;;;;;;;;5049905;28;46768;-78
2021/05/29 09:18:31;;;;;;;2.40;2.00;;;;;;;;;;5075824;28;35908;-78
2021/05/29 09:21:16;;;;;;;3.05;2.33;;;;;;;;;;5059004;28;37703;-78
2021/05/29 09:23:46;;;;;;;4.18;2.50;;;;;;;;;;5054682;28;49550;-77
2021/05/29 09:26:13;;;;;;;3.28;2.30;;;;;;;;;;5062125;28;38368;-77
2021/05/29 09:28:41;;;;;;;3.85;2.50;;;;;;;;;;5062972;28;36489;-78
2021/05/29 09:31:12;;;;;;;3.40;2.85;;;;;;;;;;5060961;28;39320;-78
2021/05/29 09:33:39;;;;;;;5.80;2.40;;;;;;;;;;5062917;28;37974;-77
2021/05/29 09:36:10;;;;;;;4.57;2.67;;;;;;;;;;5061426;28;37606;-77
2021/05/29 09:38:40;;;;;;;3.57;3.00;;;;;;;;;;5066506;28;36456;-77
2021/05/29 09:41:27;;;;;;;3.72;2.40;;;;;;;;;;5062449;28;40877;-76
2021/05/29 09:43:55;;;;;;;3.70;2.10;;;;;;;;;;5065569;28;38101;-79
2021/05/29 09:46:22;;;;;;;3.78;2.20;;;;;;;;;;5062955;28;39991;-78
2021/05/29 09:48:59;;;;;;;3.97;1.92;;;;;;;;;;5066954;28;37128;-77
2021/05/29 09:51:31;;;;;;;3.13;1.88;;;;;;;;;;5062820;28;40174;-77
2021/05/29 09:54:05;;;;;;;2.47;2.28;;;;;;;;;;5058100;28;38765;-77
2021/05/29 09:56:40;;;;;;;2.60;1.83;;;;;;;;;;5065412;28;48597;-79
2021/05/29 09:59:08;;;;;;;2.70;2.22;;;;;;;;;;5062933;28;37636;-77
2021/05/29 10:01:35;;;;;;;2.58;1.90;;;;;;;;;;5062250;28;39085;-79
2021/05/29 10:04:03;;;;;;;3.13;2.33;;;;;;;;;;5066695;28;39365;-77
2021/05/29 10:06:29;;;;;;;2.75;2.00;;;;;;;;;;5064874;28;47417;-77
2021/05/29 10:08:56;;;;;;;4.55;2.50;;;;;;;;;;5075827;27;37938;-77
2021/05/29 10:11:22;;;;;;;3.67;2.53;;;;;;;;;;5067181;27;39682;-80
2021/05/29 10:13:48;;;;;;;3.53;2.50;;;;;;;;;;5069195;28;37288;-79
2021/05/29 10:16:15;;;;;;;3.90;2.70;;;;;;;;;;5061584;28;38276;-76
2021/05/29 10:18:48;;;;;;;3.83;2.40;;;;;;;;;;5052071;27;37146;-77
2021/05/29 10:21:15;;;;;;;5.10;2.78;;;;;;;;;;5045430;28;39750;-77
2021/05/29 10:23:45;;;;;;;4.63;3.13;;;;;;;;;;5050227;28;39251;-78
2021/05/29 10:26:12;;;;;;;4.03;2.70;;;;;;;;;;5045297;28;38043;-78
2021/05/29 10:28:39;;;;;;;3.88;2.70;;;;;;;;;;5043455;28;36744;-76
2021/05/29 10:31:06;;;;;;;3.38;3.00;;;;;;;;;;5043504;28;39480;-79
2021/05/29 10:33:40;;;;;;;5.45;3.05;;;;;;;;;;5048125;28;39381;-79
2021/05/29 10:36:07;;;;;;;4.50;3.08;;;;;;;;;;5046624;28;38382;-79
2021/05/29 10:38:44;;;;;;;4.80;2.83;;;;;;;;;;5045719;28;37294;-78
2021/05/29 10:41:10;;;;;;;3.80;2.72;;;;;;;;;;5045203;28;39605;-76
2021/05/29 10:43:37;;;;;;;6.07;3.35;;;;;;;;;;5041323;28;38140;-77
2021/05/29 10:46:09;;;;;;;4.82;3.00;;;;;;;;;;5080276;28;39634;-77
2021/05/29 10:48:42;;;;;;;4.57;3.45;;;;;;;;;;5076002;28;38629;-78
2021/05/29 10:51:11;;;;;;;4.05;2.88;;;;;;;;;;5045081;28;39776;-78
2021/05/29 10:53:45;;;;;;;4.15;3.10;;;;;;;;;;5047212;28;37708;-76
2021/05/29 10:56:17;;;;;;;6.30;2.92;;;;;;;;;;5043334;28;38285;-77
2021/05/29 10:59:18;;;;;;;4.38;3.28;;;;;;;;;;5043936;28;36731;-78
2021/05/29 11:01:45;;;;;;;3.47;2.97;;;;;;;;;;5065646;27;48912;-78
2021/05/29 11:04:23;;;;;;;4.95;3.05;;;;;;;;;;5063935;27;37677;-78
2021/05/29 11:06:52;;;;;;;3.55;2.65;;;;;;;;;;5066607;28;38649;-77
2021/05/29 11:09:32;;;;;;;3.47;3.00;;;;;;;;;;5077131;27;37163;-79
2021/05/29 11:11:59;;;;;;;4.70;3.67;;;;;;;;;;5065557;27;39337;-79
2021/05/29 11:14:31;;;;;;;5.03;3.50;;;;;;;;;;5048032;28;39803;-79
2021/05/29 11:16:58;;;;;;;4.38;3.38;;;;;;;;;;5047794;28;38978;-78
2021/05/29 11:19:25;;;;;;;4.28;3.88;;;;;;;;;;5061794;27;35930;-78
2021/05/29 11:22:00;;;;;;;3.85;3.13;;;;;;;;;;5067972;27;38865;-79
2021/05/29 11:24:27;;;;;;;6.35;4.35;;;;;;;;;;5056523;27;47897;-78
2021/05/29 11:26:53;;;;;;;7.72;4.40;;;;;;;;;;5047333;28;38692;-77
2021/05/29 11:29:20;;;;;;;9.00;4.07;;;;;;;;;;5042428;28;37542;-78
2021/05/29 11:31:48;;;;;;;5.93;4.18;;;;;;;;;;5045391;28;37326;-78
2021/05/29 11:34:14;;;;;;;5.57;4.22;;;;;;;;;;5046945;28;39120;-77
2021/05/29 11:36:44;;;;;;;5.82;3.97;;;;;;;;;;5028454;28;37056;-78
2021/05/29 11:39:12;;;;;;;7.68;5.28;;;;;;;;;;5061268;28;35828;-78
2021/05/29 11:41:38;;;;;;;6.70;4.72;;;;;;;;;;5046365;28;39091;-77
2021/05/29 11:44:08;;;;;;;4.88;4.38;;;;;;;;;;5047653;28;38726;-77
2021/05/29 11:46:35;;;;;;;5.65;4.05;;;;;;;;;;5044539;28;39272;-76
2021/05/29 11:49:03;;;;;;;5.07;3.60;;;;;;;;;;5041783;28;38593;-78
2021/05/29 11:51:39;;;;;;;5.65;4.05;;;;;;;;;;5042886;28;47592;-78
2021/05/29 11:54:08;;;;;;;6.85;3.25;;;;;;;;;;5026852;28;38883;-79
2021/05/29 11:56:35;;;;;;;3.65;3.05;;;;;;;;;;5058556;28;38440;-79
2021/05/29 11:59:04;;;;;;;3.53;3.13;;;;;;;;;;5045389;28;36575;-80
2021/05/29 12:01:32;;;;;;;3.80;3.30;;;;;;;;;;5044976;28;48900;-78
2021/05/29 12:03:59;;;;;;;6.13;4.07;;;;;;;;;;5047851;28;39577;-79
2021/05/29 12:06:35;;;;;;;5.50;4.03;;;;;;;;;;5044399;28;38306;-80
2021/05/29 12:09:03;;;;;;;5.03;3.65;;;;;;;;;;5041515;28;37081;-78
2021/05/29 12:11:30;;;;;;;4.63;2.95;;;;;;;;;;5045080;28;47197;-76
2021/05/29 12:14:00;;;;;;;5.65;3.45;;;;;;;;;;5043824;28;38892;-76
2021/05/29 12:16:27;;;;;;;4.72;2.97;;;;;;;;;;5035289;28;38894;-79
2021/05/29 12:18:54;;;;;;;3.13;2.47;;;;;;;;;;5033955;28;37637;-76
2021/05/29 12:21:20;;;;;;;6.18;3.17;;;;;;;;;;5043353;28;39676;-78
2021/05/29 12:23:51;;;;;;;4.78;3.20;;;;;;;;;;5047084;28;39176;-78
2021/05/29 12:26:18;;;;;;;5.65;3.42;;;;;;;;;;5037263;28;38747;-79
2021/05/29 12:28:45;;;;;;;4.53;3.60;;;;;;;;;;5063378;28;37077;-78
2021/05/29 12:31:11;;;;;;;5.65;3.97;;;;;;;;;;5044196;27;39044;-79
2021/05/29 12:33:38;;;;;;;7.20;4.85;;;;;;;;;;5045869;28;38812;-78
2021/05/29 12:36:05;;;;;;;7.95;4.35;;;;;;;;;;5042175;28;39382;-78
2021/05/29 12:38:32;;;;;;;5.25;4.32;;;;;;;;;;5046142;28;36940;-77
2021/05/29 12:40:58;;;;;;;4.93;4.15;;;;;;;;;;5041162;28;40681;-77
2021/05/29 12:43:25;;;;;;;5.40;3.85;;;;;;;;;;5045745;28;39768;-77
2021/05/29 12:45:52;;;;;;;5.78;4.43;;;;;;;;;;5077115;27;38820;-78
2021/05/29 12:48:19;;;;;;;4.45;3.90;;;;;;;;;;5069677;28;37087;-77
2021/05/29 12:51:00;;;;;;;5.10;4.60;;;;;;;;;;5036427;28;38443;-77
2021/05/29 12:53:27;;;;;;;5.60;4.63;;;;;;;;;;5043279;28;37566;-78
2021/05/29 12:56:06;;;;;;;5.90;4.72;;;;;;;;;;5042913;28;38093;-78
2021/05/29 12:58:32;;;;;;;9.30;4.22;;;;;;;;;;5043951;28;47487;-77
2021/05/29 13:11:53;;;;;;;7.38;5.05;;;;;;;;;;5049489;28;40236;-77
2021/05/29 13:14:30;;;;;;;9.45;4.57;;;;;;;;;;5039864;28;38764;-77
2021/05/29 13:17:00;;;;;;;6.20;3.67;;;;;;;;;;5031424;28;38612;-78
2021/05/29 13:19:28;;;;;;;5.72;4.15;;;;;;;;;;5040376;28;37073;-78
2021/05/29 13:22:02;;;;;;;5.18;4.55;;;;;;;;;;5072544;27;39118;-78
2021/05/29 13:24:57;;;;;;;6.80;4.43;;;;;;;;;;5061279;27;48934;-79
2021/05/29 13:27:27;;;;;;;9.75;4.25;;;;;;;;;;5043248;28;38667;-77
2021/05/29 13:29:57;;;;;;;5.70;4.00;;;;;;;;;;5063687;28;37633;-79
2021/05/29 13:32:26;;;;;;;5.25;4.00;;;;;;;;;;5032105;28;39441;-77
2021/05/29 13:34:52;;;;;;;5.90;3.30;;;;;;;;;;5033369;28;38676;-78
2021/05/29 13:37:19;;;;;;;6.22;4.75;;;;;;;;;;5035030;28;38025;-78
2021/05/29 13:39:47;;;;;;;6.10;3.70;;;;;;;;;;5040141;28;38348;-78
2021/05/29 13:42:13;;;;;;;5.20;3.60;;;;;;;;;;5054116;28;39726;-79
2021/05/29 13:44:40;;;;;;;6.30;3.47;;;;;;;;;;5045534;28;38461;-78
2021/05/29 13:47:07;;;;;;;6.47;3.65;;;;;;;;;;5045172;28;39266;-79
2021/05/29 13:49:34;;;;;;;4.03;3.00;;;;;;;;;;5039793;28;37240;-78
2021/05/29 13:52:00;;;;;;;4.50;3.05;;;;;;;;;;5036100;28;39063;-78
2021/05/29 13:54:27;;;;;;;3.80;2.33;;;;;;;;;;5044161;28;39456;-78
2021/05/29 13:56:53;;;;;;;4.20;2.92;;;;;;;;;;5041004;28;38149;-78
2021/05/29 13:59:20;;;;;;;4.65;2.50;;;;;;;;;;5041918;28;35895;-77
2021/05/29 14:01:47;;;;;;;4.50;2.80;;;;;;;;;;5034060;28;39731;-79
2021/05/29 14:04:13;;;;;;;5.28;3.10;;;;;;;;;;5044962;28;38403;-77
2021/05/29 14:06:40;;;;;;;2.85;2.63;;;;;;;;;;5044086;28;37933;-79
2021/05/29 14:09:08;;;;;;;3.58;2.97;;;;;;;;;;5039930;28;37734;-78
2021/05/29 14:11:40;;;;;;;7.45;3.67;;;;;;;;;;5043654;28;40771;-77
2021/05/29 14:14:06;;;;;;;4.35;3.15;;;;;;;;;;5044944;28;39525;-77
2021/05/29 14:16:33;;;;;;;4.13;3.40;;;;;;;;;;5034131;28;38916;-77
2021/05/29 14:19:01;;;;;;;6.57;4.20;;;;;;;;;;5067142;28;36165;-78
2021/05/29 14:21:28;;;;;;;5.45;3.10;;;;;;;;;;5076154;28;47207;-79
2021/05/29 14:23:54;;;;;;;3.75;3.28;;;;;;;;;;5043998;28;38648;-80
2021/05/29 14:26:22;;;;;;;4.30;3.17;;;;;;;;;;5027691;28;38672;-79
2021/05/29 14:28:49;;;;;;;4.43;3.50;;;;;;;;;;5041882;28;35398;-78
2021/05/29 14:31:15;;;;;;;4.32;3.50;;;;;;;;;;5042044;28;38734;-77
2021/05/29 14:33:42;;;;;;;5.03;3.00;;;;;;;;;;5045932;28;39200;-77
2021/05/29 14:36:09;;;;;;;5.60;4.07;;;;;;;;;;5043151;28;39034;-79
2021/05/29 14:38:36;;;;;;;6.88;3.83;;;;;;;;;;5039237;28;37132;-78
2021/05/29 14:41:03;;;;;;;5.65;4.10;;;;;;;;;;5034566;28;39202;-77
2021/05/29 14:43:30;;;;;;;7.22;4.28;;;;;;;;;;5028508;28;40274;-78
2021/05/29 14:45:56;;;;;;;8.93;4.78;;;;;;;;;;5024484;28;38300;-79
2021/05/29 14:48:23;;;;;;;6.28;4.60;;;;;;;;;;5056724;28;37447;-79
2021/05/29 14:53:34;;;;;;;7.97;5.25;;;;;;;;;;5028248;28;50500;-76
2021/05/29 14:56:01;;;;;;;5.45;4.22;;;;;;;;;;5028482;28;37936;-78
2021/05/29 14:58:27;;;;;;;7.07;5.22;;;;;;;;;;5030381;28;37377;-76
2021/05/29 15:00:53;;;;;;;9.10;6.40;;;;;;;;;;5044251;28;39170;-77
2021/05/29 15:03:20;;;;;;;7.65;5.82;;;;;;;;;;5044791;28;39014;-78
2021/05/29 15:05:46;;;;;;;8.25;5.93;;;;;;;;;;5042574;28;37479;-77
2021/05/29 15:08:12;;;;;;;7.78;4.85;;;;;;;;;;5032212;28;36730;-76